createdAt,value
2023-01-28T00:00:22.311Z,3.90
2023-01-28T00:01:21.979Z,4.20
2023-01-28T00:02:21.739Z,3.90
2023-01-28T00:03:21.859Z,4.00
2023-01-28T00:04:21.622Z,4.00
2023-01-28T00:05:21.517Z,4.00
2023-01-28T00:06:21.830Z,3.80
2023-01-28T00:07:21.808Z,3.90
2023-01-28T00:08:21.689Z,4.40
2023-01-28T00:09:22.250Z,4.70
2023-01-28T00:10:21.499Z,4.60
2023-01-28T00:11:21.905Z,4.80
2023-01-28T00:12:21.532Z,4.70
2023-01-28T00:13:21.555Z,5.20
2023-01-28T00:14:21.477Z,5.50
2023-01-28T00:15:21.367Z,5.20
2023-01-28T00:16:21.432Z,5.40
2023-01-28T00:17:21.344Z,7.00
2023-01-28T00:18:21.325Z,4.50
2023-01-28T00:19:21.312Z,4.40
2023-01-28T00:20:21.311Z,4.50
2023-01-28T00:21:21.291Z,4.50
2023-01-28T00:22:21.296Z,4.50
2023-01-28T00:23:21.274Z,4.50
2023-01-28T00:24:21.308Z,5.60
2023-01-28T00:25:21.277Z,5.10
2023-01-28T00:26:21.229Z,4.40
2023-01-28T00:27:21.249Z,4.10
2023-01-28T00:28:21.199Z,4.30
2023-01-28T00:29:21.192Z,3.90
2023-01-28T00:30:21.383Z,4.10
2023-01-28T00:31:21.219Z,4.80
2023-01-28T00:32:21.150Z,4.90
2023-01-28T00:33:21.170Z,5.20
2023-01-28T00:34:21.130Z,4.30
2023-01-28T00:35:21.108Z,4.40
2023-01-28T00:36:21.104Z,3.90
2023-01-28T00:37:21.091Z,4.40
2023-01-28T00:38:21.076Z,4.10
2023-01-28T00:39:21.079Z,4.50
2023-01-28T00:40:21.050Z,4.60
2023-01-28T00:41:21.056Z,4.70
2023-01-28T00:42:21.027Z,4.30
2023-01-28T00:43:21.025Z,4.60
2023-01-28T00:44:21.045Z,4.60
2023-01-28T00:45:20.983Z,4.50
2023-01-28T00:46:21.067Z,4.20
2023-01-28T00:47:20.960Z,4.50
2023-01-28T00:48:20.952Z,4.70
2023-01-28T00:49:20.935Z,4.60
2023-01-28T00:50:20.989Z,4.90
2023-01-28T00:51:20.913Z,5.00
2023-01-28T00:52:20.911Z,4.20
2023-01-28T00:53:20.891Z,4.10
2023-01-28T00:54:20.891Z,4.20
2023-01-28T00:55:22.034Z,3.80
2023-01-28T00:56:22.118Z,4.10
2023-01-28T00:57:21.975Z,4.40
2023-01-28T00:58:21.947Z,4.00
2023-01-28T00:59:21.943Z,4.00
2023-01-28T01:00:21.924Z,3.50
2023-01-28T01:01:21.974Z,3.70
2023-01-28T01:02:21.966Z,3.70
2023-01-28T01:03:21.889Z,3.50
2023-01-28T01:04:21.885Z,3.80
2023-01-28T01:05:21.875Z,3.90
2023-01-28T01:06:21.888Z,3.80
2023-01-28T01:07:21.876Z,3.80
2023-01-28T01:08:21.819Z,3.70
2023-01-28T01:09:21.827Z,3.70
2023-01-28T01:10:21.807Z,3.90
2023-01-28T01:11:21.848Z,3.60
2023-01-28T01:12:21.798Z,3.90
2023-01-28T01:13:21.816Z,3.80
2023-01-28T01:29:58.755Z,3.50
2023-01-28T01:30:58.830Z,3.40
2023-01-28T01:31:58.731Z,4.00
2023-01-28T01:32:58.665Z,5.70
2023-01-28T01:33:58.625Z,4.90
2023-01-28T01:34:58.607Z,4.80
2023-01-28T01:35:58.665Z,3.80
2023-01-28T01:36:58.587Z,4.00
2023-01-28T01:37:58.553Z,4.00
2023-01-28T01:38:58.550Z,4.10
2023-01-28T01:39:58.536Z,4.10
2023-01-28T01:40:58.611Z,5.40
2023-01-28T01:41:58.510Z,3.80
2023-01-28T01:42:58.500Z,3.60
2023-01-28T01:43:58.481Z,3.00
2023-01-28T01:44:58.460Z,3.30
2023-01-28T01:45:58.512Z,2.80
2023-01-28T01:46:58.483Z,3.00
2023-01-28T01:47:58.417Z,2.90
2023-01-28T01:48:58.522Z,3.00
2023-01-28T01:49:58.405Z,3.10
2023-01-28T01:50:58.391Z,3.20
2023-01-28T01:51:58.368Z,3.20
2023-01-28T01:52:58.384Z,3.10
2023-01-28T01:53:58.347Z,3.00
2023-01-28T01:54:58.354Z,3.20
2023-01-28T01:55:58.350Z,3.10
2023-01-28T01:56:58.314Z,2.90
2023-01-28T01:57:58.348Z,3.10
2023-01-28T01:58:58.296Z,3.10
2023-01-28T01:59:58.292Z,3.00
2023-01-28T02:00:58.272Z,3.20
2023-01-28T02:01:58.290Z,3.00
2023-01-28T02:02:58.247Z,3.10
2023-01-28T02:03:58.265Z,3.30
2023-01-28T02:04:58.220Z,3.20
2023-01-28T02:05:58.235Z,3.10
2023-01-28T02:06:58.216Z,3.20
2023-01-28T02:07:58.176Z,3.10
2023-01-28T02:08:58.165Z,3.30
2023-01-28T02:09:58.198Z,3.30
2023-01-28T02:10:58.142Z,3.20
2023-01-28T02:11:58.163Z,3.20
2023-01-28T02:12:58.121Z,3.30
2023-01-28T02:13:58.097Z,3.20
2023-01-28T02:14:58.093Z,3.00
2023-01-28T02:15:58.100Z,3.20
2023-01-28T02:16:58.155Z,3.30
2023-01-28T02:17:58.050Z,3.20
2023-01-28T02:18:58.046Z,3.20
2023-01-28T02:19:59.166Z,3.30
2023-01-28T02:20:59.199Z,3.40
2023-01-28T02:21:59.144Z,3.20
2023-01-28T02:22:59.125Z,3.20
2023-01-28T02:23:59.151Z,3.10
2023-01-28T02:24:59.127Z,2.90
2023-01-28T02:25:59.120Z,2.50
2023-01-28T02:26:59.121Z,2.70
2023-01-28T02:27:59.051Z,2.80
2023-01-28T02:28:59.049Z,2.90
2023-01-28T02:29:59.032Z,2.90
2023-01-28T02:30:59.088Z,2.70
2023-01-28T02:31:59.042Z,2.60
2023-01-28T02:32:59.009Z,2.90
2023-01-28T02:33:59.984Z,2.70
2023-01-28T02:34:58.979Z,2.90
2023-01-28T02:35:58.973Z,2.70
2023-01-28T02:36:58.986Z,2.80
2023-01-28T02:37:58.939Z,2.70
2023-01-28T02:38:59.097Z,2.90
2023-01-28T02:39:58.924Z,2.70
2023-01-28T02:40:58.913Z,2.70
2023-01-28T02:41:58.903Z,2.80
2023-01-28T02:42:58.901Z,2.90
2023-01-28T02:43:58.882Z,2.70
2023-01-28T02:44:58.861Z,2.70
2023-01-28T02:45:58.879Z,2.60
2023-01-28T02:46:58.841Z,2.50
2023-01-28T02:47:58.836Z,2.80
2023-01-28T02:48:58.828Z,2.70
2023-01-28T02:49:58.797Z,2.50
2023-01-28T02:50:58.788Z,2.70
2023-01-28T02:51:58.779Z,2.60
2023-01-28T02:52:58.779Z,2.60
2023-01-28T02:53:58.772Z,2.60
2023-01-28T02:54:58.765Z,2.90
2023-01-28T02:55:58.735Z,2.50
2023-01-28T02:56:58.734Z,2.50
2023-01-28T02:57:58.743Z,2.50
2023-01-28T02:58:58.697Z,2.60
2023-01-28T02:59:58.854Z,2.40
2023-01-28T03:00:58.721Z,2.60
2023-01-28T03:01:58.673Z,2.60
2023-01-28T03:02:58.694Z,2.40
2023-01-28T03:03:58.648Z,2.70
2023-01-28T03:04:58.623Z,2.50
2023-01-28T03:05:58.682Z,2.70
2023-01-28T03:06:58.607Z,2.70
2023-01-28T03:07:58.600Z,2.60
2023-01-28T03:08:58.607Z,2.60
2023-01-28T03:09:58.584Z,2.60
2023-01-28T03:10:58.553Z,2.60
2023-01-28T03:11:58.550Z,2.60
2023-01-28T03:12:59.002Z,2.60
2023-01-28T03:13:58.540Z,2.80
2023-01-28T03:14:58.514Z,2.80
2023-01-28T03:15:58.584Z,2.60
2023-01-28T03:16:58.493Z,2.80
2023-01-28T03:17:58.481Z,2.70
2023-01-28T03:18:58.488Z,2.80
2023-01-28T03:19:58.451Z,2.80
2023-01-28T03:20:58.453Z,3.00
2023-01-28T03:21:58.803Z,2.80
2023-01-28T03:22:58.433Z,2.80
2023-01-28T03:23:58.482Z,2.60
2023-01-28T03:24:58.404Z,2.50
2023-01-28T03:25:58.404Z,2.60
2023-01-28T03:26:58.381Z,2.80
2023-01-28T03:27:58.812Z,2.70
2023-01-28T03:28:58.410Z,2.70
2023-01-28T03:29:58.347Z,2.80
2023-01-28T03:30:58.411Z,2.80
2023-01-28T03:31:58.333Z,2.90
2023-01-28T03:32:58.323Z,2.80
2023-01-28T03:33:58.304Z,2.90
2023-01-28T03:34:58.305Z,2.60
2023-01-28T03:35:58.286Z,2.60
2023-01-28T03:36:58.261Z,2.60
2023-01-28T03:37:58.259Z,2.40
2023-01-28T03:38:58.269Z,2.60
2023-01-28T03:39:58.244Z,2.60
2023-01-28T03:40:58.219Z,2.40
2023-01-28T03:41:58.221Z,2.60
2023-01-28T03:42:58.202Z,2.60
2023-01-28T03:43:58.187Z,2.30
2023-01-28T03:44:58.205Z,2.30
2023-01-28T03:45:58.251Z,2.60
2023-01-28T03:46:58.163Z,2.40
2023-01-28T03:47:58.134Z,2.60
2023-01-28T03:48:58.137Z,2.40
2023-01-28T03:49:58.172Z,2.50
2023-01-28T03:50:58.103Z,2.50
2023-01-28T03:51:58.095Z,2.50
2023-01-28T03:52:58.096Z,2.50
2023-01-28T03:53:58.071Z,2.60
2023-01-28T03:54:58.103Z,2.60
2023-01-28T03:55:58.044Z,2.70
2023-01-28T03:56:59.017Z,2.50
2023-01-28T03:57:58.020Z,2.60
2023-01-28T03:58:58.003Z,2.70
2023-01-28T03:59:58.006Z,2.90
2023-01-28T04:00:58.039Z,2.70
2023-01-28T04:01:57.990Z,2.60
2023-01-28T04:02:58.012Z,2.90
2023-01-28T04:03:57.953Z,2.70
2023-01-28T04:04:57.938Z,2.70
2023-01-28T04:05:57.964Z,2.80
2023-01-28T04:06:57.994Z,2.90
2023-01-28T04:07:58.676Z,2.80
2023-01-28T04:08:57.961Z,2.80
2023-01-28T04:09:57.880Z,2.90
2023-01-28T04:10:57.896Z,3.00
2023-01-28T04:11:57.873Z,2.90
2023-01-28T04:12:57.849Z,3.10
2023-01-28T04:13:57.828Z,3.10
2023-01-28T04:14:57.827Z,3.00
2023-01-28T04:15:57.869Z,2.80
2023-01-28T04:16:58.533Z,2.70
2023-01-28T04:17:57.789Z,2.60
2023-01-28T04:18:57.776Z,2.70
2023-01-28T04:19:57.776Z,2.70
2023-01-28T04:20:57.746Z,2.60
2023-01-28T04:21:57.788Z,2.60
2023-01-28T04:22:57.740Z,2.70
2023-01-28T04:23:57.760Z,2.80
2023-01-28T04:24:57.705Z,2.50
2023-01-28T04:25:57.704Z,2.30
2023-01-28T04:26:57.749Z,2.70
2023-01-28T04:27:57.673Z,2.60
2023-01-28T04:28:57.664Z,2.70
2023-01-28T04:29:57.653Z,2.80
2023-01-28T04:30:57.667Z,2.80
2023-01-28T04:31:57.822Z,2.70
2023-01-28T04:32:57.649Z,2.50
2023-01-28T04:33:57.595Z,2.50
2023-01-28T04:34:57.574Z,2.80
2023-01-28T04:35:57.583Z,2.60
2023-01-28T04:36:57.563Z,2.60
2023-01-28T04:37:57.559Z,2.40
2023-01-28T04:38:57.535Z,2.30
2023-01-28T04:39:57.530Z,2.20
2023-01-28T04:40:57.510Z,2.30
2023-01-28T04:41:57.532Z,2.50
2023-01-28T04:42:57.509Z,2.40
2023-01-28T04:43:57.460Z,2.40
2023-01-28T04:44:58.469Z,2.40
2023-01-28T04:45:57.450Z,2.40
2023-01-28T04:46:57.474Z,2.60
2023-01-28T04:47:57.459Z,2.60
2023-01-28T04:48:57.415Z,2.40
2023-01-28T04:49:57.406Z,2.30
2023-01-28T04:50:57.404Z,2.10
2023-01-28T04:51:57.448Z,2.40
2023-01-28T04:52:57.402Z,2.20
2023-01-28T04:53:57.350Z,2.20
2023-01-28T04:54:57.358Z,2.30
2023-01-28T04:55:57.338Z,2.30
2023-01-28T04:56:57.353Z,2.20
2023-01-28T04:57:57.328Z,1.90
2023-01-28T04:58:57.312Z,1.70
2023-01-28T04:59:57.293Z,1.90
2023-01-28T05:00:57.338Z,1.60
2023-01-28T05:01:57.334Z,1.70
2023-01-28T05:02:57.271Z,1.60
2023-01-28T05:03:57.247Z,1.60
2023-01-28T05:04:57.230Z,1.90
2023-01-28T05:05:57.218Z,2.00
2023-01-28T05:06:57.244Z,1.70
2023-01-28T05:07:57.225Z,1.70
2023-01-28T05:08:57.181Z,2.00
2023-01-28T05:09:57.192Z,1.50
2023-01-28T05:10:57.161Z,1.40
2023-01-28T05:11:57.171Z,1.20
2023-01-28T05:12:57.172Z,1.10
2023-01-28T05:13:57.124Z,1.00
2023-01-28T05:14:57.109Z,1.20
2023-01-28T05:15:57.115Z,1.30
2023-01-28T05:16:57.088Z,1.30
2023-01-28T05:17:57.143Z,1.20
2023-01-28T05:18:57.067Z,1.40
2023-01-28T05:19:57.061Z,1.30
2023-01-28T05:20:57.038Z,1.30
2023-01-28T05:21:57.038Z,1.60
2023-01-28T05:22:57.042Z,1.40
2023-01-28T05:23:57.033Z,1.50
2023-01-28T05:24:56.988Z,1.30
2023-01-28T05:25:56.985Z,1.20
2023-01-28T05:26:56.976Z,1.30
2023-01-28T05:27:56.961Z,1.40
2023-01-28T05:28:56.960Z,1.30
2023-01-28T05:29:56.933Z,1.40
2023-01-28T05:30:56.969Z,1.00
2023-01-28T05:31:56.919Z,1.20
2023-01-28T05:32:56.917Z,1.10
2023-01-28T05:33:56.934Z,1.30
2023-01-28T05:34:56.877Z,1.30
2023-01-28T05:35:56.878Z,1.40
2023-01-28T05:36:56.850Z,1.10
2023-01-28T05:37:56.849Z,1.30
2023-01-28T05:38:57.074Z,1.10
2023-01-28T05:39:56.827Z,1.40
2023-01-28T05:40:56.867Z,1.20
2023-01-28T05:41:56.806Z,1.20
2023-01-28T05:42:56.787Z,1.20
2023-01-28T05:43:56.793Z,1.30
2023-01-28T05:44:56.795Z,1.30
2023-01-28T05:45:56.761Z,1.30
2023-01-28T05:46:56.744Z,1.20
2023-01-28T05:47:56.740Z,1.10
2023-01-28T05:48:56.719Z,1.20
2023-01-28T05:49:56.747Z,1.30
2023-01-28T05:50:56.712Z,1.40
2023-01-28T05:51:56.696Z,1.20
2023-01-28T05:52:56.675Z,1.30
2023-01-28T05:53:56.728Z,1.40
2023-01-28T05:54:56.669Z,1.40
2023-01-28T05:55:56.672Z,1.30
2023-01-28T05:56:56.636Z,1.20
2023-01-28T05:57:56.620Z,1.20
2023-01-28T05:58:56.644Z,1.30
2023-01-28T05:59:56.603Z,1.20
2023-01-28T06:00:56.659Z,1.20
2023-01-28T06:01:56.578Z,1.20
2023-01-28T06:02:56.576Z,1.40
2023-01-28T06:03:56.557Z,1.20
2023-01-28T06:04:57.619Z,1.20
2023-01-28T06:05:56.584Z,1.30
2023-01-28T06:06:56.787Z,1.50
2023-01-28T06:07:56.501Z,1.20
2023-01-28T06:08:56.499Z,1.30
2023-01-28T06:09:56.487Z,1.20
2023-01-28T06:10:56.482Z,1.40
2023-01-28T06:11:56.481Z,1.20
2023-01-28T06:12:56.444Z,1.50
2023-01-28T06:13:56.426Z,1.90
2023-01-28T06:14:56.422Z,1.50
2023-01-28T06:15:56.650Z,1.40
2023-01-28T06:16:56.440Z,1.40
2023-01-28T06:17:56.388Z,1.60
2023-01-28T06:18:56.384Z,1.40
2023-01-28T06:19:56.365Z,1.10
2023-01-28T06:20:56.368Z,1.50
2023-01-28T06:21:56.379Z,1.30
2023-01-28T06:22:56.330Z,1.40
2023-01-28T06:23:56.354Z,1.30
2023-01-28T06:24:56.301Z,1.30
2023-01-28T06:25:56.296Z,1.40
2023-01-28T06:26:56.294Z,1.40
2023-01-28T06:27:56.298Z,1.90
2023-01-28T06:28:56.257Z,1.50
2023-01-28T06:29:56.251Z,1.60
2023-01-28T06:30:56.268Z,1.40
2023-01-28T06:31:56.242Z,1.60
2023-01-28T06:32:56.285Z,1.40
2023-01-28T06:33:56.217Z,1.30
2023-01-28T06:34:56.198Z,1.40
2023-01-28T06:35:56.190Z,1.40
2023-01-28T06:36:56.169Z,1.50
2023-01-28T06:37:56.203Z,1.50
2023-01-28T06:38:56.178Z,1.40
2023-01-28T06:39:56.174Z,1.60
2023-01-28T06:40:56.260Z,1.60
2023-01-28T06:41:56.115Z,1.50
2023-01-28T06:42:56.102Z,1.40
2023-01-28T06:43:56.111Z,1.50
2023-01-28T06:44:56.099Z,1.30
2023-01-28T06:45:56.077Z,1.40
2023-01-28T06:46:56.054Z,1.50
2023-01-28T06:47:56.051Z,1.50
2023-01-28T06:48:56.054Z,1.50
2023-01-28T06:49:56.045Z,1.50
2023-01-28T06:50:56.023Z,1.50
2023-01-28T06:51:55.999Z,1.50
2023-01-28T06:52:55.983Z,1.60
2023-01-28T06:53:56.023Z,1.40
2023-01-28T06:54:55.963Z,1.70
2023-01-28T06:55:55.957Z,1.80
2023-01-28T06:56:55.937Z,1.80
2023-01-28T06:57:55.937Z,2.00
2023-01-28T06:58:55.915Z,1.80
2023-01-28T06:59:55.996Z,1.70
2023-01-28T07:00:55.891Z,1.70
2023-01-28T07:01:56.507Z,1.70
2023-01-28T07:02:55.920Z,1.50
2023-01-28T07:03:55.867Z,1.50
2023-01-28T07:04:55.877Z,1.60
2023-01-28T07:05:55.842Z,1.70
2023-01-28T07:06:55.834Z,1.50
2023-01-28T07:07:55.821Z,1.70
2023-01-28T07:08:55.812Z,1.60
2023-01-28T07:09:55.781Z,1.70
2023-01-28T07:10:56.339Z,1.60
2023-01-28T07:11:55.772Z,1.70
2023-01-28T07:12:55.758Z,1.70
2023-01-28T07:13:55.737Z,1.70
2023-01-28T07:14:55.734Z,1.50
2023-01-28T07:15:55.738Z,1.60
2023-01-28T07:16:55.735Z,1.70
2023-01-28T07:17:55.697Z,1.70
2023-01-28T07:18:55.677Z,1.60
2023-01-28T07:19:56.693Z,1.70
2023-01-28T07:20:55.692Z,1.90
2023-01-28T07:21:55.650Z,1.90
2023-01-28T07:22:55.653Z,2.00
2023-01-28T07:23:55.683Z,1.80
2023-01-28T07:24:55.659Z,1.60
2023-01-28T07:25:55.639Z,1.60
2023-01-28T07:26:55.587Z,1.60
2023-01-28T07:27:55.600Z,1.50
2023-01-28T07:28:55.572Z,1.60
2023-01-28T07:29:55.548Z,1.60
2023-01-28T07:30:55.545Z,1.50
2023-01-28T07:31:55.638Z,1.60
2023-01-28T07:32:55.551Z,1.80
2023-01-28T07:33:55.518Z,1.60
2023-01-28T07:34:55.498Z,1.60
2023-01-28T07:35:59.210Z,1.70
2023-01-28T07:36:57.432Z,1.50
2023-01-28T07:37:56.485Z,1.60
2023-01-28T07:38:55.563Z,1.60
2023-01-28T07:39:55.617Z,1.80
2023-01-28T07:40:55.596Z,1.90
2023-01-28T07:41:55.803Z,1.70
2023-01-28T07:42:55.550Z,1.60
2023-01-28T07:43:55.548Z,1.70
2023-01-28T07:44:55.669Z,1.70
2023-01-28T07:45:55.375Z,1.70
2023-01-28T07:46:55.402Z,1.50
2023-01-28T07:47:56.082Z,1.90
2023-01-28T07:48:56.494Z,1.70
2023-01-28T07:49:55.321Z,1.90
2023-01-28T07:50:55.638Z,1.80
2023-01-28T07:51:56.616Z,1.70
2023-01-28T07:52:55.975Z,1.90
2023-01-28T07:53:55.913Z,1.70
2023-01-28T07:54:55.718Z,1.80
2023-01-28T07:55:55.522Z,1.80
2023-01-28T07:56:56.201Z,1.70
2023-01-28T07:57:56.201Z,1.90
2023-01-28T07:58:56.316Z,1.80
2023-01-28T07:59:55.715Z,1.80
2023-01-28T08:00:55.363Z,1.80
2023-01-28T08:01:56.187Z,1.70
2023-01-28T08:02:55.293Z,1.80
2023-01-28T08:03:55.525Z,1.80
2023-01-28T08:04:55.733Z,1.70
2023-01-28T08:05:56.083Z,1.80
2023-01-28T08:06:55.137Z,1.80
2023-01-28T08:07:55.163Z,1.90
2023-01-28T08:08:55.267Z,1.70
2023-01-28T08:09:55.103Z,2.10
2023-01-28T08:10:55.082Z,2.00
2023-01-28T08:11:55.061Z,2.10
2023-01-28T08:12:55.078Z,1.90
2023-01-28T08:13:55.075Z,1.90
2023-01-28T08:14:55.046Z,1.80
2023-01-28T08:15:55.073Z,1.90
2023-01-28T08:16:55.005Z,1.80
2023-01-28T08:17:55.004Z,1.60
2023-01-28T08:18:55.037Z,1.60
2023-01-28T08:19:54.984Z,1.70
2023-01-28T08:20:54.977Z,1.70
2023-01-28T08:21:55.067Z,1.90
2023-01-28T08:22:54.943Z,2.00
2023-01-28T08:23:55.034Z,2.00
2023-01-28T08:24:54.904Z,2.00
2023-01-28T08:25:54.905Z,1.70
2023-01-28T08:26:54.902Z,1.70
2023-01-28T08:27:54.885Z,1.70
2023-01-28T08:28:54.871Z,1.70
2023-01-28T08:29:54.888Z,1.80
2023-01-28T08:30:54.996Z,1.70
2023-01-28T08:31:54.827Z,1.70
2023-01-28T08:32:54.829Z,1.70
2023-01-28T08:33:54.811Z,1.80
2023-01-28T08:34:54.823Z,1.70
2023-01-28T08:35:54.813Z,1.60
2023-01-28T08:36:54.773Z,1.70
2023-01-28T08:37:54.808Z,1.70
2023-01-28T08:38:54.757Z,1.80
2023-01-28T08:39:54.736Z,1.70
2023-01-28T08:40:54.750Z,1.70
2023-01-28T08:41:54.734Z,1.80
2023-01-28T08:42:54.774Z,1.90
2023-01-28T08:43:54.695Z,2.00
2023-01-28T08:44:54.684Z,1.90
2023-01-28T08:45:54.699Z,1.80
2023-01-28T08:46:54.656Z,1.90
2023-01-28T08:47:54.701Z,1.80
2023-01-28T08:48:54.647Z,2.00
2023-01-28T08:49:54.613Z,2.90
2023-01-28T08:50:54.649Z,2.80
2023-01-28T08:51:54.607Z,2.60
2023-01-28T08:52:54.594Z,2.20
2023-01-28T08:53:54.580Z,2.20
2023-01-28T08:54:54.565Z,2.00
2023-01-28T08:55:54.542Z,2.00
2023-01-28T08:56:54.563Z,1.80
2023-01-28T08:57:55.537Z,1.90
2023-01-28T08:58:54.523Z,1.90
2023-01-28T08:59:54.511Z,1.80
2023-01-28T09:00:54.758Z,1.90
2023-01-28T09:01:54.561Z,1.90
2023-01-28T09:02:54.468Z,1.90
2023-01-28T09:03:54.480Z,1.90
2023-01-28T09:04:54.431Z,2.20
2023-01-28T09:05:54.435Z,2.10
2023-01-28T09:06:54.471Z,2.00
2023-01-28T09:07:54.413Z,2.00
2023-01-28T09:08:54.397Z,1.90
2023-01-28T09:09:54.439Z,1.90
2023-01-28T09:10:54.377Z,2.00
2023-01-28T09:11:54.356Z,2.10
2023-01-28T09:12:54.394Z,2.00
2023-01-28T09:13:54.356Z,2.10
2023-01-28T09:14:54.348Z,1.90
2023-01-28T09:15:54.334Z,2.00
2023-01-28T09:16:54.309Z,2.00
2023-01-28T09:17:54.344Z,2.10
2023-01-28T09:18:54.279Z,1.90
2023-01-28T09:19:54.277Z,1.90
2023-01-28T09:20:54.277Z,1.80
2023-01-28T09:21:54.239Z,2.00
2023-01-28T09:22:54.248Z,2.30
2023-01-28T09:23:54.348Z,2.20
2023-01-28T09:24:54.225Z,1.90
2023-01-28T09:25:54.212Z,2.00
2023-01-28T09:26:54.227Z,3.20
2023-01-28T09:27:54.195Z,4.80
2023-01-28T09:28:54.227Z,4.00
2023-01-28T09:29:54.180Z,3.00
2023-01-28T09:30:54.216Z,2.30
2023-01-28T09:31:54.167Z,2.00
2023-01-28T09:32:54.124Z,1.80
2023-01-28T09:33:54.146Z,2.00
2023-01-28T09:34:54.106Z,1.90
2023-01-28T09:35:54.082Z,1.80
2023-01-28T09:36:54.152Z,1.90
2023-01-28T09:37:55.056Z,2.60
2023-01-28T09:38:54.094Z,25.20
2023-01-28T09:39:54.094Z,4.70
2023-01-28T09:40:54.207Z,3.60
2023-01-28T09:41:54.052Z,2.60
2023-01-28T09:42:54.017Z,4.70
2023-01-28T09:43:54.700Z,2.00
2023-01-28T09:44:54.067Z,5.10
2023-01-28T09:45:54.417Z,9.10
2023-01-28T09:46:54.168Z,17.90
2023-01-28T09:47:53.983Z,13.90
2023-01-28T09:48:53.965Z,5.80
2023-01-28T09:49:53.928Z,3.00
2023-01-28T09:50:53.945Z,1.80
2023-01-28T09:51:53.914Z,2.00
2023-01-28T09:52:53.913Z,1.90
2023-01-28T09:53:53.896Z,1.80
2023-01-28T09:54:53.865Z,1.60
2023-01-28T09:55:54.292Z,1.80
2023-01-28T09:56:53.840Z,1.70
2023-01-28T09:57:53.826Z,2.10
2023-01-28T09:58:54.821Z,1.80
2023-01-28T09:59:53.800Z,2.10
2023-01-28T10:00:53.824Z,2.00
2023-01-28T10:01:53.793Z,1.90
2023-01-28T10:02:53.769Z,2.00
2023-01-28T10:03:53.819Z,1.90
2023-01-28T10:04:54.123Z,1.90
2023-01-28T10:05:53.770Z,1.80
2023-01-28T10:06:53.723Z,2.10
2023-01-28T10:07:53.717Z,2.30
2023-01-28T10:08:53.707Z,2.10
2023-01-28T10:09:53.694Z,2.20
2023-01-28T10:10:53.726Z,2.20
2023-01-28T10:11:53.667Z,2.20
2023-01-28T10:12:53.656Z,2.10
2023-01-28T10:13:53.664Z,2.10
2023-01-28T10:14:53.647Z,2.20
2023-01-28T10:15:54.733Z,2.30
2023-01-28T10:16:53.612Z,2.40
2023-01-28T10:18:03.889Z,2.40
2023-01-28T10:18:53.591Z,2.60
2023-01-28T10:19:53.579Z,2.50
2023-01-28T10:20:53.578Z,2.50
2023-01-28T10:21:53.582Z,2.50
2023-01-28T10:22:53.550Z,2.50
2023-01-28T10:23:53.549Z,2.40
2023-01-28T10:24:53.722Z,2.50
2023-01-28T10:25:53.561Z,2.70
2023-01-28T10:26:53.559Z,2.40
2023-01-28T10:27:53.478Z,2.60
2023-01-28T10:28:53.502Z,2.50
2023-01-28T10:29:53.473Z,2.50
2023-01-28T10:30:53.466Z,2.60
2023-01-28T10:31:53.658Z,2.60
2023-01-28T10:32:53.437Z,3.00
2023-01-28T10:33:53.457Z,3.00
2023-01-28T10:34:53.430Z,2.90
2023-01-28T10:35:53.407Z,2.80
2023-01-28T10:36:53.417Z,2.90
2023-01-28T10:37:53.386Z,2.80
2023-01-28T10:38:53.362Z,3.10
2023-01-28T10:39:56.117Z,3.00
2023-01-28T10:40:53.349Z,3.50
2023-01-28T10:41:58.263Z,4.10
2023-01-28T10:42:54.327Z,4.40
2023-01-28T10:43:53.882Z,3.10
2023-01-28T10:44:54.308Z,3.40
2023-01-28T10:45:53.326Z,3.30
2023-01-28T10:46:53.323Z,3.40
2023-01-28T10:47:53.309Z,3.60
2023-01-28T10:48:53.249Z,3.90
2023-01-28T10:49:53.239Z,4.00
2023-01-28T10:50:53.982Z,4.10
2023-01-28T10:51:53.223Z,9.70
2023-01-28T10:52:53.219Z,7.40
2023-01-28T10:53:53.195Z,5.80
2023-01-28T10:54:54.188Z,5.50
2023-01-28T10:55:53.169Z,7.00
2023-01-28T10:56:53.168Z,6.30
2023-01-28T10:57:53.183Z,5.80
2023-01-28T10:58:53.131Z,5.60
2023-01-28T10:59:53.809Z,5.80
2023-01-28T11:00:53.188Z,6.20
2023-01-28T11:01:53.149Z,5.90
2023-01-28T11:02:53.143Z,5.90
2023-01-28T11:03:53.634Z,8.00
2023-01-28T11:04:53.086Z,8.70
2023-01-28T11:05:53.075Z,9.00
2023-01-28T11:06:53.068Z,6.30
2023-01-28T11:07:53.033Z,8.80
2023-01-28T11:08:53.090Z,10.10
2023-01-28T11:09:53.014Z,7.70
2023-01-28T11:10:53.007Z,6.90
2023-01-28T11:11:53.008Z,12.50
2023-01-28T11:12:52.968Z,10.10
2023-01-28T11:13:53.009Z,19.20
2023-01-28T11:14:52.961Z,18.80
2023-01-28T11:15:52.935Z,14.00
2023-01-28T11:16:52.932Z,11.60
2023-01-28T11:17:52.947Z,8.60
2023-01-28T11:18:52.969Z,10.10
2023-01-28T11:19:52.915Z,8.60
2023-01-28T11:20:52.886Z,4.70
2023-01-28T11:21:52.910Z,5.00
2023-01-28T11:22:52.874Z,6.00
2023-01-28T11:23:52.915Z,36.70
2023-01-28T11:24:52.890Z,12.60
2023-01-28T11:25:52.820Z,12.50
2023-01-28T11:26:53.059Z,13.80
2023-01-28T11:27:53.194Z,18.30
2023-01-28T11:28:52.820Z,21.50
2023-01-28T11:29:53.707Z,19.90
2023-01-28T11:30:53.307Z,12.90
2023-01-28T11:31:53.472Z,13.50
2023-01-28T11:33:01.451Z,13.30
